Time;durP1;ratioP1;P1;durP2;ratioP2;P2;SDS_P1;SDS_P2;PMS_P1;PMS_P2;Temp;Humidity;BMP_temperature;BMP_pressure;BME280_temperature;BME280_humidity;BME280_pressure;Samples;Min_cycle;Max_cycle;Signal;HPM_P1;HPM_P2
2023/04/19 00:01:12;;;;;;;6.85;4.00;;;;;;;-148.88;97.60;77172.91;5011671;28;20104;-77
2023/04/19 00:03:38;;;;;;;7.05;3.50;;;;;;;-148.88;97.39;77172.91;5013103;28;20368;-76
2023/04/19 00:06:03;;;;;;;6.18;4.90;;;;;;;-148.88;97.90;77176.97;5013248;28;20026;-77
2023/04/19 00:08:28;;;;;;;6.43;3.50;;;;;;;-148.88;97.37;77191.19;5012947;28;20108;-77
2023/04/19 00:10:54;;;;;;;7.15;5.28;;;;;;;-148.88;98.39;77195.25;5012854;28;20087;-77
2023/04/19 00:13:20;;;;;;;7.25;4.00;;;;;;;-148.88;97.80;77201.34;5013268;28;20033;-77
2023/04/19 00:15:46;;;;;;;7.05;5.53;;;;;;;-148.88;98.43;77201.34;5012853;28;20101;-77
2023/04/19 00:18:11;;;;;;;7.50;5.43;;;;;;;-148.88;97.94;77199.31;5012807;28;20113;-77
2023/04/19 00:20:37;;;;;;;7.03;5.32;;;;;;;-148.88;97.17;77203.41;5012767;28;20022;-76
2023/04/19 00:23:03;;;;;;;7.63;5.63;;;;;;;-148.88;97.32;77199.31;5012801;28;20032;-76
2023/04/19 00:25:30;;;;;;;7.95;5.82;;;;;;;-148.88;96.86;77203.41;5012824;28;20026;-76
2023/04/19 00:27:56;;;;;;;7.25;3.70;;;;;;;-148.88;97.08;77207.47;5012837;28;20029;-76
2023/04/19 00:30:21;;;;;;;6.10;3.72;;;;;;;-148.88;96.96;77211.53;5012828;28;20045;-76
2023/04/19 00:32:46;;;;;;;5.82;3.58;;;;;;;-148.88;97.02;77211.53;5012699;28;20022;-77
2023/04/19 00:35:11;;;;;;;12.55;4.00;;;;;;;-148.88;96.66;77211.53;5013012;28;20033;-77
2023/04/19 00:37:37;;;;;;;7.28;5.60;;;;;;;-148.88;96.20;77213.56;5011550;28;20080;-76
2023/04/19 00:40:03;;;;;;;8.35;5.88;;;;;;;-148.88;95.91;77211.53;5014068;28;20502;-77
2023/04/19 00:42:28;;;;;;;7.38;3.83;;;;;;;-148.88;96.26;77213.56;5016754;28;20030;-77
2023/04/19 00:44:54;;;;;;;10.20;4.50;;;;;;;-148.88;96.22;77211.53;5015489;28;20022;-76
2023/04/19 00:47:19;;;;;;;7.72;5.80;;;;;;;-148.88;96.06;77223.72;5016635;28;20445;-77
2023/04/19 00:49:45;;;;;;;7.63;5.63;;;;;;;-148.88;95.50;77219.66;5016707;28;20033;-77
2023/04/19 00:52:11;;;;;;;9.05;6.55;;;;;;;-148.88;95.82;77233.88;5015223;28;20032;-77
2023/04/19 00:54:37;;;;;;;8.35;4.18;;;;;;;-148.88;95.52;77237.94;5016831;28;20018;-77
2023/04/19 00:57:03;;;;;;;7.32;3.47;;;;;;;-148.88;93.96;77231.84;5018816;28;20018;-76
2023/04/19 00:59:29;;;;;;;9.73;4.20;;;;;;;-148.88;92.89;77235.91;5018250;28;20120;-76
2023/04/19 01:01:55;;;;;;;7.45;4.43;;;;;;;-148.88;91.74;77248.09;5017976;28;20036;-76
2023/04/19 01:04:21;;;;;;;11.68;4.32;;;;;;;-148.88;90.02;77244.03;5018004;28;20386;-76
2023/04/19 01:06:47;;;;;;;7.43;4.28;;;;;;;-148.88;89.07;77248.09;5020397;28;20522;-76
2023/04/19 01:09:12;;;;;;;8.45;4.43;;;;;;;-148.88;86.81;77233.88;5015498;28;20061;-77
2023/04/19 01:11:38;;;;;;;7.18;4.40;;;;;;;-148.88;85.27;77235.91;5016965;28;20524;-76
2023/04/19 01:14:03;;;;;;;8.25;4.97;;;;;;;-148.88;84.14;77229.81;5016807;28;20032;-77
2023/04/19 01:16:28;;;;;;;9.63;4.88;;;;;;;-148.88;83.30;77229.81;5016750;28;20021;-77
2023/04/19 01:18:54;;;;;;;10.77;5.18;;;;;;;-148.88;84.20;77231.84;5016550;28;20026;-76
2023/04/19 01:21:21;;;;;;;10.15;4.63;;;;;;;-148.88;83.51;77244.03;5014760;28;20121;-77
2023/04/19 01:23:46;;;;;;;11.05;4.45;;;;;;;-148.88;83.85;77244.03;5014667;28;20038;-77
2023/04/19 01:26:12;;;;;;;9.25;4.35;;;;;;;-148.88;84.04;77250.13;5016318;28;20129;-77
2023/04/19 01:28:37;;;;;;;7.00;4.18;;;;;;;-148.88;84.92;77248.09;5016072;28;20117;-77
2023/04/19 01:31:02;;;;;;;15.85;4.88;;;;;;;-148.88;84.91;77254.19;5016271;28;20054;-76
2023/04/19 01:33:28;;;;;;;8.05;4.30;;;;;;;-148.88;85.48;77268.41;5016826;28;20379;-77
2023/04/19 01:35:53;;;;;;;8.85;4.55;;;;;;;-148.88;84.65;77272.47;5016667;28;20018;-76
2023/04/19 01:38:18;;;;;;;8.05;4.57;;;;;;;-148.88;84.24;77276.53;5016526;28;20022;-77
2023/04/19 01:40:44;;;;;;;8.20;6.30;;;;;;;-148.88;82.27;77276.53;5015767;28;20057;-76
2023/04/19 01:43:13;;;;;;;7.90;4.07;;;;;;;-148.88;81.66;77276.53;5015449;28;20030;-76
2023/04/19 01:45:39;;;;;;;8.05;4.10;;;;;;;-148.88;79.80;77286.69;5015481;28;20026;-77
2023/04/19 01:48:04;;;;;;;7.35;4.40;;;;;;;-148.88;78.77;77284.66;5015428;28;20395;-76
2023/04/19 01:50:30;;;;;;;9.65;4.00;;;;;;;-148.88;77.51;77288.72;5015434;28;20037;-77
2023/04/19 01:52:56;;;;;;;5.90;3.63;;;;;;;-148.88;75.26;77284.66;5015472;28;20049;-77
2023/04/19 01:55:21;;;;;;;7.43;5.80;;;;;;;-148.88;75.01;77286.69;5015274;28;20448;-76
2023/04/19 01:57:46;;;;;;;6.53;3.50;;;;;;;-148.88;74.09;77296.88;5015364;28;20076;-76
2023/04/19 02:00:12;;;;;;;6.55;3.35;;;;;;;-148.88;73.27;77290.75;5015304;28;20049;-76
2023/04/19 02:02:37;;;;;;;8.55;4.00;;;;;;;-148.88;72.68;77288.72;5015125;28;20025;-77
2023/04/19 02:05:05;;;;;;;8.82;5.32;;;;;;;-148.88;70.94;77290.75;5015091;28;20459;-76
2023/04/19 02:07:30;;;;;;;10.48;3.20;;;;;;;-148.88;69.66;77294.84;5013834;28;20030;-76
2023/04/19 02:09:58;;;;;;;8.02;2.83;;;;;;;-148.88;65.06;77290.75;5015774;28;20075;-76
2023/04/19 02:12:25;;;;;;;7.80;3.28;;;;;;;-148.88;64.70;77284.66;5015220;28;20080;-76
2023/04/19 02:14:50;;;;;;;8.18;3.47;;;;;;;-148.88;63.49;77288.72;5013951;28;20045;-76
2023/04/19 02:17:16;;;;;;;8.77;5.30;;;;;;;-148.88;62.82;77292.81;5015201;28;20475;-76
2023/04/19 02:19:41;;;;;;;6.93;3.05;;;;;;;-148.88;62.25;77290.75;5015023;28;20018;-76
2023/04/19 02:22:06;;;;;;;5.40;2.92;;;;;;;-148.88;61.60;77294.84;5014996;28;20021;-76
2023/04/19 02:24:32;;;;;;;5.75;4.10;;;;;;;-148.88;62.17;77298.91;5015174;28;20064;-77
2023/04/19 02:26:57;;;;;;;8.18;3.35;;;;;;;-148.88;60.96;77300.94;5015130;28;20396;-77
2023/04/19 02:29:22;;;;;;;7.22;3.38;;;;;;;-148.88;60.40;77307.03;5014922;28;20022;-77
2023/04/19 02:31:48;;;;;;;6.05;2.75;;;;;;;-148.88;59.49;77311.09;5013362;28;20053;-77
2023/04/19 02:34:13;;;;;;;5.15;2.60;;;;;;;-148.88;58.48;77315.16;5015201;28;20068;-76
2023/04/19 02:36:38;;;;;;;8.35;2.88;;;;;;;-148.88;59.25;77317.19;5014961;28;20464;-76
2023/04/19 02:39:04;;;;;;;6.68;4.22;;;;;;;-148.88;59.39;77321.25;5014604;28;20030;-77
2023/04/19 02:41:30;;;;;;;6.00;2.25;;;;;;;-148.88;60.90;77341.56;5014661;28;20029;-76
2023/04/19 02:43:55;;;;;;;4.65;2.47;;;;;;;-148.88;61.39;77349.69;5014520;28;20053;-76
2023/04/19 02:46:20;;;;;;;5.57;3.05;;;;;;;-148.88;61.04;77353.75;5014410;28;20114;-76
2023/04/19 02:48:45;;;;;;;4.50;2.78;;;;;;;-148.88;61.57;77361.88;5013172;28;20034;-76
2023/04/19 02:51:15;;;;;;;6.07;2.78;;;;;;;-148.88;61.77;77370.00;5014742;28;20021;-76
2023/04/19 02:53:41;;;;;;;8.18;3.22;;;;;;;-148.88;61.52;77378.16;5014322;28;20053;-76
2023/04/19 02:56:07;;;;;;;5.70;2.92;;;;;;;-148.88;62.56;77382.22;5014294;28;20021;-76
2023/04/19 02:58:32;;;;;;;5.60;2.38;;;;;;;-148.88;63.23;77390.34;5014387;28;20075;-77
2023/04/19 03:00:57;;;;;;;5.85;2.80;;;;;;;-148.88;63.96;77404.56;5014199;28;20021;-76
2023/04/19 03:03:22;;;;;;;10.45;2.72;;;;;;;-148.88;64.88;77410.66;5013640;28;20121;-76
2023/04/19 03:05:48;;;;;;;8.25;3.60;;;;;;;-148.88;65.73;77422.84;5014202;28;20028;-76
2023/04/19 03:08:13;;;;;;;5.47;2.80;;;;;;;-148.88;66.47;77433.00;5014127;28;20064;-76
2023/04/19 03:10:38;;;;;;;7.00;2.88;;;;;;;-148.88;67.28;77439.09;5014664;28;20490;-76
2023/04/19 03:13:04;;;;;;;6.93;2.80;;;;;;;-148.88;67.09;77451.28;5012804;28;20120;-77
2023/04/19 03:15:29;;;;;;;4.18;2.17;;;;;;;-148.88;67.53;77455.38;5013982;28;20030;-77
2023/04/19 03:17:54;;;;;;;4.70;2.47;;;;;;;-148.88;67.86;77463.50;5013991;28;20105;-76
2023/04/19 03:20:20;;;;;;;4.00;2.22;;;;;;;-148.88;67.94;77475.69;5013901;28;20474;-76
2023/04/19 03:22:45;;;;;;;9.80;2.60;;;;;;;-148.88;66.31;77475.69;5013859;28;20033;-76
2023/04/19 03:25:13;;;;;;;4.22;2.22;;;;;;;-148.88;67.41;77485.84;5013755;28;20018;-76
2023/04/19 03:27:38;;;;;;;4.57;2.00;;;;;;;-148.88;68.31;77504.13;5012457;28;20501;-76
2023/04/19 03:30:04;;;;;;;3.88;2.20;;;;;;;-148.88;67.99;77510.22;5013884;28;20021;-76
2023/04/19 03:32:30;;;;;;;4.93;2.50;;;;;;;-148.88;67.99;77510.22;5013683;28;20490;-77
2023/04/19 03:34:56;;;;;;;4.63;2.40;;;;;;;-148.88;67.74;77514.28;5013710;28;20507;-76
2023/04/19 03:37:21;;;;;;;3.97;2.13;;;;;;;-148.88;67.54;77524.44;5013525;28;20034;-76
2023/04/19 03:39:47;;;;;;;5.35;2.47;;;;;;;-148.88;67.96;77526.47;5013302;28;20510;-76
2023/04/19 03:42:13;;;;;;;6.75;2.00;;;;;;;-148.88;68.49;77532.59;5013350;28;20036;-76
2023/04/19 03:44:38;;;;;;;6.82;2.20;;;;;;;-148.88;68.17;77542.75;5013269;28;20029;-76
2023/04/19 03:47:04;;;;;;;9.65;4.05;;;;;;;-148.88;68.81;77544.78;5013515;28;20096;-76
2023/04/19 03:49:29;;;;;;;5.68;2.15;;;;;;;-148.88;68.67;77548.84;5013437;28;20053;-76
2023/04/19 03:51:54;;;;;;;4.07;1.92;;;;;;;-148.88;68.75;77556.97;5013287;28;20029;-76
2023/04/19 03:54:20;;;;;;;6.50;2.30;;;;;;;-148.88;69.42;77563.06;5013205;28;20032;-76
2023/04/19 03:56:46;;;;;;;4.22;2.00;;;;;;;-148.88;69.96;77577.28;5013149;28;20020;-76
2023/04/19 03:59:11;;;;;;;3.90;2.20;;;;;;;-148.88;69.96;77581.34;5013092;28;20030;-76
2023/04/19 04:01:40;;;;;;;4.78;2.20;;;;;;;-148.88;70.18;77573.22;5012941;28;20026;-76
2023/04/19 04:04:07;;;;;;;5.97;2.25;;;;;;;-148.88;70.48;77577.28;5011660;28;20052;-76
2023/04/19 04:06:33;;;;;;;5.70;2.10;;;;;;;-148.88;71.60;77593.53;5012857;28;20053;-76
2023/04/19 04:08:58;;;;;;;4.40;2.10;;;;;;;-148.88;71.18;77597.59;5012989;28;20053;-76
2023/04/19 04:11:24;;;;;;;3.83;2.00;;;;;;;-148.88;70.82;77597.59;5012828;28;20022;-76
2023/04/19 04:13:50;;;;;;;6.20;2.20;;;;;;;-148.88;71.78;77599.63;5012256;28;20030;-76
2023/04/19 04:16:15;;;;;;;4.72;2.47;;;;;;;-148.88;71.63;77601.66;5011140;28;20021;-76
2023/04/19 04:18:40;;;;;;;5.22;1.90;;;;;;;-148.88;71.98;77603.69;5011524;28;20415;-76
2023/04/19 04:21:06;;;;;;;5.47;2.00;;;;;;;-148.88;72.45;77619.97;5012779;28;20168;-76
2023/04/19 04:23:32;;;;;;;5.90;2.00;;;;;;;-148.88;72.95;77622.00;5012743;28;20022;-76
2023/04/19 04:25:59;;;;;;;4.50;2.05;;;;;;;-148.88;72.98;77634.19;5012761;28;20034;-76
2023/04/19 04:28:25;;;;;;;3.47;1.95;;;;;;;-148.88;73.86;77638.25;5012749;28;20479;-76
2023/04/19 04:30:51;;;;;;;7.75;2.10;;;;;;;-148.88;73.62;77648.41;5012627;28;20446;-76
2023/04/19 04:33:16;;;;;;;4.80;2.17;;;;;;;-148.88;73.94;77642.31;5011392;28;20447;-76
2023/04/19 04:35:42;;;;;;;5.90;2.00;;;;;;;-148.88;74.73;77654.50;5011389;28;20025;-76
2023/04/19 04:38:08;;;;;;;4.95;2.25;;;;;;;-148.88;75.12;77662.63;5012956;28;20021;-76
2023/04/19 04:40:34;;;;;;;5.50;2.08;;;;;;;-148.88;74.96;77670.75;5012519;28;20029;-76
2023/04/19 04:42:59;;;;;;;4.45;2.08;;;;;;;-148.88;76.04;77678.91;5011333;28;20117;-76
2023/04/19 04:45:25;;;;;;;5.43;1.88;;;;;;;-148.88;76.22;77682.97;5012666;28;20064;-76
2023/04/19 04:47:50;;;;;;;4.00;2.03;;;;;;;-148.88;76.73;77689.06;5012525;28;20109;-76
2023/04/19 04:50:16;;;;;;;5.30;2.17;;;;;;;-148.88;77.35;77691.09;5012893;28;20112;-76
2023/04/19 04:52:41;;;;;;;4.65;2.00;;;;;;;-148.88;77.36;77693.13;5012540;28;20049;-76
2023/04/19 04:55:07;;;;;;;7.50;2.08;;;;;;;-148.88;78.10;77699.22;5012618;28;20371;-76
2023/04/19 04:57:32;;;;;;;5.30;2.10;;;;;;;-148.88;78.84;77711.41;5012455;28;20105;-76
2023/04/19 04:59:57;;;;;;;5.35;2.15;;;;;;;-148.88;78.84;77707.34;5012295;28;20054;-76
2023/04/19 05:02:24;;;;;;;3.92;2.30;;;;;;;-148.88;79.73;77727.66;5012429;28;20025;-76
2023/04/19 05:04:49;;;;;;;7.80;2.25;;;;;;;-148.88;79.38;77731.72;5012283;28;20026;-76
2023/04/19 05:07:15;;;;;;;3.78;2.00;;;;;;;-148.88;79.82;77735.78;5012081;28;20025;-76
2023/04/19 05:09:40;;;;;;;7.15;2.55;;;;;;;-148.88;80.00;77743.94;5012127;28;20044;-76
2023/04/19 05:12:05;;;;;;;4.15;2.10;;;;;;;-148.88;80.61;77731.72;5010826;28;20040;-75
2023/04/19 05:14:30;;;;;;;6.22;2.70;;;;;;;-148.88;80.76;77743.94;5012435;28;20030;-75
2023/04/19 05:16:56;;;;;;;9.02;2.40;;;;;;;-148.88;81.93;77737.81;5012202;28;20026;-76
2023/04/19 05:19:21;;;;;;;5.75;2.10;;;;;;;-148.88;81.12;77748.00;5012178;28;20522;-76
2023/04/19 05:21:47;;;;;;;5.47;2.40;;;;;;;-148.88;81.88;77743.94;5012626;28;20022;-76
2023/04/19 05:24:12;;;;;;;4.47;2.03;;;;;;;-148.88;81.46;77745.97;5012400;28;20567;-76
2023/04/19 05:26:37;;;;;;;4.80;2.15;;;;;;;-148.88;81.79;77750.03;5014386;28;20081;-76
2023/04/19 05:29:02;;;;;;;4.57;1.80;;;;;;;-148.88;82.13;77748.00;5016122;28;20021;-76
2023/04/19 05:31:28;;;;;;;4.55;1.90;;;;;;;-148.88;81.83;77735.78;5015688;28;20022;-76
2023/04/19 05:33:53;;;;;;;4.45;1.95;;;;;;;-148.88;81.72;77743.94;5014433;28;20029;-76
2023/04/19 05:36:18;;;;;;;10.13;2.55;;;;;;;-148.88;82.05;77752.06;5015765;28;20056;-76
2023/04/19 05:38:44;;;;;;;5.70;2.67;;;;;;;-148.88;82.89;77741.88;5049015;22;20117;-79
2023/04/19 05:41:10;;;;;;;4.43;2.13;;;;;;;-148.88;82.96;77748.00;5036630;28;20029;-79
2023/04/19 05:43:35;;;;;;;5.13;2.15;;;;;;;-148.88;83.50;77748.00;5037206;28;20025;-79
2023/04/19 05:46:01;;;;;;;11.25;2.80;;;;;;;-148.88;82.96;77739.84;5037762;28;20535;-78
2023/04/19 05:48:26;;;;;;;4.88;2.20;;;;;;;-148.88;83.50;77748.00;5035477;28;20441;-78
2023/04/19 05:51:09;;;;;;;5.57;1.92;;;;;;;-148.88;83.18;77752.06;5073885;22;20409;-85
2023/04/19 05:53:55;;;;;;;4.93;2.40;;;;;;;-148.88;82.90;77748.00;5039622;28;20037;-86
2023/04/19 05:56:38;;;;;;;5.50;1.90;;;;;;;-148.88;84.50;77739.84;5039781;28;20262;-85
2023/04/19 05:59:04;;;;;;;4.00;2.03;;;;;;;-148.88;83.74;77735.78;5057018;28;20456;-86
2023/04/19 06:01:41;;;;;;;8.90;2.30;;;;;;;-148.88;83.50;77725.63;5039981;28;20044;-86
2023/04/19 06:04:35;;;;;;;4.78;2.50;;;;;;;-148.88;83.84;77727.66;5039786;28;20025;-86
2023/04/19 06:07:45;;;;;;;6.18;2.08;;;;;;;-148.88;83.18;77707.34;5014671;28;20462;-86
2023/04/19 06:10:49;;;;;;;8.70;2.60;;;;;;;-148.88;83.31;77699.22;5036285;28;20060;-86
2023/04/19 06:13:43;;;;;;;5.10;2.03;;;;;;;-148.88;83.74;77699.22;4980282;28;20037;-87
2023/04/19 06:17:02;;;;;;;4.60;1.80;;;;;;;-148.88;83.11;77687.03;5000872;28;20505;-86
2023/04/19 06:20:11;;;;;;;5.13;2.30;;;;;;;-148.88;83.16;77678.91;4988692;28;20030;-86
2023/04/19 06:23:05;;;;;;;5.90;2.80;;;;;;;-148.88;83.30;77662.63;5027913;28;20037;-86
2023/04/19 06:25:40;;;;;;;4.55;2.00;;;;;;;-148.88;83.84;77646.38;5038838;28;20396;-86
2023/04/19 06:28:06;;;;;;;5.22;1.98;;;;;;;-148.88;83.18;77636.22;5037543;28;20029;-85
2023/04/19 06:30:37;;;;;;;6.13;2.30;;;;;;;-148.88;80.62;77642.31;5040724;28;20556;-86
2023/04/19 06:33:03;;;;;;;4.68;1.88;;;;;;;-148.88;80.87;77624.03;5040774;28;20032;-86
2023/04/19 06:38:53;;;;;;;6.93;1.90;;;;;;;-148.88;81.78;77603.69;5001319;28;20033;-85
2023/04/19 06:47:18;;;;;;;3.78;1.88;;;;;;;-148.88;81.14;77593.53;5039099;28;20040;-86
2023/04/19 06:49:43;;;;;;;5.90;1.90;;;;;;;-148.88;81.68;77591.50;5046412;22;20060;-78
2023/04/19 06:52:09;;;;;;;6.90;2.33;;;;;;;-148.88;81.67;77587.44;5033515;28;20034;-77
2023/04/19 06:54:34;;;;;;;3.45;2.08;;;;;;;-148.88;80.72;77585.41;5034674;28;20021;-77
2023/04/19 06:57:01;;;;;;;7.47;2.33;;;;;;;-148.88;80.44;77573.22;5034370;28;20064;-77
2023/04/19 06:59:27;;;;;;;5.40;1.95;;;;;;;-148.88;79.78;77571.19;5034169;28;20104;-77
2023/04/19 07:01:52;;;;;;;5.75;2.17;;;;;;;-148.88;80.48;77565.09;5032957;28;20067;-77
2023/04/19 07:04:18;;;;;;;5.10;1.98;;;;;;;-148.88;81.53;77546.81;5034013;28;20021;-77
2023/04/19 07:06:46;;;;;;;5.10;1.70;;;;;;;-148.88;81.04;77538.69;5034284;28;20017;-77
2023/04/19 07:09:12;;;;;;;4.68;2.17;;;;;;;-148.88;80.55;77518.34;5033986;28;20029;-77
2023/04/19 07:11:37;;;;;;;4.82;2.00;;;;;;;-148.88;77.64;77516.31;5034094;28;20029;-77
2023/04/19 07:14:02;;;;;;;4.35;1.98;;;;;;;-148.88;78.15;77506.16;5034094;28;20029;-77
2023/04/19 07:16:27;;;;;;;4.57;2.13;;;;;;;-148.88;78.50;77508.19;5033853;28;20021;-77
2023/04/19 07:18:53;;;;;;;5.07;2.22;;;;;;;-148.88;78.29;77500.06;5033883;28;20017;-77
2023/04/19 07:21:18;;;;;;;4.15;1.70;;;;;;;-148.88;76.70;77514.28;5032550;28;20392;-77
2023/04/19 07:23:44;;;;;;;3.40;1.90;;;;;;;-148.88;77.59;77518.34;5033820;28;20034;-77
2023/04/19 07:26:09;;;;;;;4.95;2.03;;;;;;;-148.88;76.67;77520.38;5032360;28;20029;-77
2023/04/19 07:28:34;;;;;;;4.57;1.70;;;;;;;-148.88;77.54;77508.19;5033689;28;20044;-77
2023/04/19 07:31:00;;;;;;;7.18;2.13;;;;;;;-148.88;77.31;77498.03;5033664;28;20472;-77
2023/04/19 07:33:26;;;;;;;4.28;1.92;;;;;;;-148.88;75.60;77500.06;5032274;28;20029;-77
2023/04/19 07:35:52;;;;;;;4.25;1.88;;;;;;;-148.88;77.25;77487.88;5033381;28;20018;-77
2023/04/19 07:38:18;;;;;;;4.22;1.98;;;;;;;-148.88;77.39;77485.84;5032150;28;20448;-77
2023/04/19 07:40:43;;;;;;;3.13;1.55;;;;;;;-148.88;77.14;77481.78;5032238;28;20047;-77
2023/04/19 07:43:08;;;;;;;7.28;2.20;;;;;;;-148.88;77.33;77467.56;5034213;28;20029;-77
2023/04/19 07:45:34;;;;;;;4.05;1.98;;;;;;;-148.88;76.31;77453.31;5033214;28;20499;-77
2023/04/19 07:47:59;;;;;;;4.00;1.70;;;;;;;-148.88;75.80;77445.19;5033375;28;20483;-76
2023/04/19 07:50:27;;;;;;;4.60;2.28;;;;;;;-148.88;74.76;77447.22;5033031;28;20026;-77
2023/04/19 07:52:53;;;;;;;3.55;1.77;;;;;;;-148.88;74.96;77449.25;5033217;28;20033;-77
2023/04/19 07:55:18;;;;;;;3.65;2.20;;;;;;;-148.88;75.42;77414.72;5033102;28;20024;-77
2023/04/19 07:57:47;;;;;;;4.97;1.50;;;;;;;-148.88;76.05;77398.47;5032126;28;20108;-77
2023/04/19 08:00:14;;;;;;;3.58;2.03;;;;;;;-148.88;75.28;77370.00;5033049;28;20449;-77
2023/04/19 08:02:42;;;;;;;3.78;1.98;;;;;;;-148.88;73.83;77353.75;5033391;28;20083;-77
2023/04/19 08:05:07;;;;;;;5.32;1.75;;;;;;;-148.88;71.78;77341.56;5032927;28;20029;-77
2023/04/19 08:07:33;;;;;;;3.75;1.88;;;;;;;-148.88;72.43;77333.44;5033264;28;20034;-77
2023/04/19 08:09:58;;;;;;;6.85;1.83;;;;;;;-148.88;68.96;77345.63;5033006;28;20025;-77
2023/04/19 08:12:23;;;;;;;4.20;1.85;;;;;;;-148.88;68.38;77321.25;5032992;28;20048;-77
2023/04/19 08:14:49;;;;;;;3.22;1.88;;;;;;;-148.88;69.04;77311.09;5031588;28;20026;-77
2023/04/19 08:17:15;;;;;;;4.63;1.80;;;;;;;-148.88;68.59;77278.56;5032879;28;20025;-77
2023/04/19 08:19:40;;;;;;;4.53;2.10;;;;;;;-148.88;67.21;77237.94;5032821;28;20112;-77
2023/04/19 08:22:05;;;;;;;4.40;2.10;;;;;;;-148.88;64.90;77235.91;5033121;28;20496;-77
2023/04/19 08:24:31;;;;;;;4.82;2.05;;;;;;;-148.88;67.76;77225.75;5033239;28;20036;-77
2023/04/19 08:26:56;;;;;;;5.38;2.63;;;;;;;-148.88;67.65;77199.31;5032652;28;20026;-77
2023/04/19 08:29:22;;;;;;;3.90;2.00;;;;;;;-148.88;66.46;77176.97;5032990;28;20026;-77
2023/04/19 08:31:47;;;;;;;7.47;2.50;;;;;;;-148.88;62.45;77174.94;5032707;28;20412;-77
2023/04/19 08:34:12;;;;;;;4.45;1.98;;;;;;;-148.88;63.85;77183.06;5032968;28;20129;-77
2023/04/19 08:36:38;;;;;;;4.68;1.90;;;;;;;-148.88;61.91;77164.78;5032684;28;20024;-77
2023/04/19 08:39:03;;;;;;;5.07;2.92;;;;;;;-148.88;62.10;77162.75;5032756;28;20383;-77
2023/04/19 08:41:31;;;;;;;4.68;1.92;;;;;;;-148.88;62.75;77142.44;5032573;28;20120;-77
2023/04/19 08:43:58;;;;;;;2.88;1.83;;;;;;;-148.88;62.14;77126.19;5032489;28;20026;-77
2023/04/19 08:46:25;;;;;;;6.50;1.70;;;;;;;-148.88;62.13;77126.19;5032817;28;20021;-77
2023/04/19 08:48:51;;;;;;;4.20;1.98;;;;;;;-148.88;59.48;77105.84;5032542;28;20061;-77
2023/04/19 08:51:18;;;;;;;5.65;1.92;;;;;;;-148.88;62.27;77087.56;5032402;28;20033;-77
2023/04/19 08:53:44;;;;;;;3.75;2.13;;;;;;;-148.88;59.92;77069.28;5031172;28;20025;-77
2023/04/19 08:56:10;;;;;;;4.07;1.92;;;;;;;-148.88;59.65;77030.69;5031227;28;20117;-77
2023/04/19 08:58:36;;;;;;;6.97;3.22;;;;;;;-148.88;58.72;77026.63;5031357;28;20116;-77
2023/04/19 09:01:05;;;;;;;3.53;1.70;;;;;;;-148.88;57.81;77036.78;5041281;28;20112;-77
2023/04/19 09:03:31;;;;;;;4.63;2.70;;;;;;;-148.88;55.30;77020.53;5036521;28;20053;-77
2023/04/19 09:05:57;;;;;;;3.97;1.67;;;;;;;-148.88;58.00;76985.97;5036251;28;20111;-77
2023/04/19 09:08:28;;;;;;;4.30;2.38;;;;;;;-148.88;57.92;76931.13;5036341;28;20029;-77
2023/04/19 09:10:59;;;;;;;3.63;2.35;;;;;;;-148.88;56.17;76949.41;5036354;28;20037;-77
2023/04/19 09:13:25;;;;;;;5.25;1.95;;;;;;;-148.88;53.13;76943.31;5036240;28;20491;-77
2023/04/19 09:15:52;;;;;;;6.00;2.85;;;;;;;-148.88;53.87;76914.88;5036074;28;20021;-77
2023/04/19 09:18:18;;;;;;;4.90;2.75;;;;;;;-148.88;55.39;76892.53;5036092;28;20538;-77
2023/04/19 09:20:44;;;;;;;7.15;3.17;;;;;;;-148.88;56.34;76841.72;5034872;28;20120;-77
2023/04/19 09:23:12;;;;;;;4.22;2.70;;;;;;;-148.88;54.60;76835.63;5035962;28;20350;-77
2023/04/19 09:25:39;;;;;;;5.78;2.60;;;;;;;-148.88;51.75;76801.09;5034579;28;20018;-77
2023/04/19 09:28:09;;;;;;;4.82;2.50;;;;;;;-148.88;52.85;76760.44;5036202;28;20395;-77
2023/04/19 09:30:35;;;;;;;4.15;2.70;;;;;;;-148.88;50.70;76744.19;5035970;28;20024;-77
2023/04/19 09:33:00;;;;;;;5.47;2.70;;;;;;;-148.88;48.65;76744.19;5034674;28;20037;-77
2023/04/19 09:35:47;;;;;;;6.43;2.50;;;;;;;-148.88;46.02;76695.44;5034714;28;20559;-77
2023/04/19 09:38:13;;;;;;;4.25;2.22;;;;;;;-148.88;45.69;76691.38;5050687;28;20029;-77
2023/04/19 09:40:40;;;;;;;6.05;2.28;;;;;;;-148.88;44.93;76683.25;5036174;28;20025;-77
2023/04/19 09:43:06;;;;;;;4.15;2.70;;;;;;;-148.88;44.17;76734.03;5034452;28;20048;-77
2023/04/19 09:45:41;;;;;;;4.72;2.28;;;;;;;-148.88;40.94;76715.75;5035748;28;20476;-77
2023/04/19 09:48:07;;;;;;;6.95;2.85;;;;;;;-148.88;41.64;76699.50;5035853;28;20420;-77
2023/04/19 09:50:33;;;;;;;4.00;2.20;;;;;;;-148.88;41.22;76719.81;5034183;28;20543;-77
2023/04/19 09:52:59;;;;;;;4.65;2.20;;;;;;;-148.88;42.41;76681.22;5035450;28;20057;-77
2023/04/19 09:55:25;;;;;;;5.45;2.38;;;;;;;-148.88;39.93;76660.91;5034071;28;20022;-77
2023/04/19 09:57:51;;;;;;;4.72;2.10;;;;;;;-148.88;40.02;76691.38;5035584;28;20025;-77
2023/04/19 10:00:17;;;;;;;5.03;2.40;;;;;;;-148.88;40.63;76671.06;5035452;28;20124;-77
2023/04/19 10:02:46;;;;;;;8.35;2.55;;;;;;;-148.88;41.54;76608.09;5035308;28;20017;-77
2023/04/19 10:05:14;;;;;;;5.05;2.15;;;;;;;-148.88;40.87;76565.41;5033862;28;20028;-77
2023/04/19 10:07:40;;;;;;;4.78;2.30;;;;;;;-148.88;38.74;76565.41;5035183;28;20032;-77
2023/04/19 10:10:07;;;;;;;4.53;2.25;;;;;;;-148.88;38.14;76536.97;5035190;28;20108;-77
2023/04/19 10:12:34;;;;;;;3.92;2.25;;;;;;;-148.88;38.03;76549.16;5035141;28;20480;-77
2023/04/19 10:14:59;;;;;;;5.32;2.40;;;;;;;-148.88;36.86;76561.34;5033931;28;20040;-77
2023/04/19 10:17:25;;;;;;;3.22;2.10;;;;;;;-148.88;37.94;76571.50;5035131;28;20029;-77
2023/04/19 10:19:56;;;;;;;5.05;2.17;;;;;;;-148.88;38.74;76504.47;5035016;28;20167;-77
2023/04/19 10:22:23;;;;;;;4.13;2.20;;;;;;;-148.88;38.18;76500.41;5035174;28;20032;-77
2023/04/19 10:25:11;;;;;;;4.82;2.40;;;;;;;-148.88;38.50;76467.91;5034889;28;20040;-77
2023/04/19 10:27:37;;;;;;;6.13;2.35;;;;;;;-148.88;38.41;76439.47;5034943;28;20079;-77
2023/04/19 10:30:06;;;;;;;3.50;1.98;;;;;;;-148.88;37.28;76398.81;5034881;28;20021;-77
2023/04/19 10:32:42;;;;;;;3.72;2.13;;;;;;;-148.88;37.83;76378.50;5035058;28;20502;-77
2023/04/19 10:35:08;;;;;;;7.88;2.08;;;;;;;-148.88;38.04;76376.47;5034689;28;20024;-77
2023/04/19 10:37:38;;;;;;;5.38;2.20;;;;;;;-148.88;37.07;76350.06;5034691;28;20026;-77
2023/04/19 10:40:04;;;;;;;3.40;2.03;;;;;;;-148.88;33.02;76366.31;5034644;28;20026;-77
2023/04/19 10:43:08;;;;;;;3.75;2.20;;;;;;;-148.88;32.66;76366.31;5034611;28;20021;-77
2023/04/19 10:45:34;;;;;;;4.90;2.00;;;;;;;-148.88;33.72;76431.34;5034347;28;20532;-77
2023/04/19 10:48:02;;;;;;;2.88;2.10;;;;;;;-148.88;33.90;76425.25;5033130;28;20377;-77
2023/04/19 10:50:27;;;;;;;5.07;2.28;;;;;;;-148.88;32.90;76453.69;5034637;28;20030;-77
2023/04/19 10:52:52;;;;;;;4.95;1.88;;;;;;;-148.88;33.23;76419.16;5035033;28;20040;-77
2023/04/19 10:55:19;;;;;;;4.63;1.90;;;;;;;-148.88;32.63;76398.81;5034438;28;20100;-77
2023/04/19 10:58:06;;;;;;;4.75;2.10;;;;;;;-148.88;34.11;76358.19;5034557;28;20025;-77
2023/04/19 11:00:32;;;;;;;4.05;1.95;;;;;;;-148.88;34.08;76362.25;5034427;28;20115;-77
2023/04/19 11:03:37;;;;;;;4.57;2.10;;;;;;;-148.88;33.39;76364.28;5034237;28;20021;-77
2023/04/19 11:06:17;;;;;;;4.68;2.17;;;;;;;-148.88;32.29;76350.06;5033921;28;20108;-77
2023/04/19 11:08:43;;;;;;;5.30;2.00;;;;;;;-148.88;32.77;76337.88;5032556;28;20026;-78
2023/04/19 11:11:09;;;;;;;4.70;2.38;;;;;;;-148.88;33.38;76281.00;5033792;28;20051;-78
2023/04/19 11:13:36;;;;;;;3.85;2.15;;;;;;;-148.88;33.43;76297.25;5033442;28;20025;-78
2023/04/19 11:16:07;;;;;;;4.72;2.13;;;;;;;-148.88;33.70;76301.31;5033823;28;20028;-76
2023/04/19 11:18:32;;;;;;;4.05;2.05;;;;;;;-148.88;34.08;76256.63;5034389;28;20043;-77
2023/04/19 11:20:57;;;;;;;3.28;2.05;;;;;;;-148.88;33.89;76256.63;5035083;28;20017;-78
2023/04/19 11:23:22;;;;;;;3.08;2.25;;;;;;;-148.88;35.02;76258.66;5033966;28;20052;-77
2023/04/19 11:25:50;;;;;;;3.50;2.33;;;;;;;-148.88;34.09;76183.50;5032679;28;20025;-78
2023/04/19 11:28:16;;;;;;;3.58;2.38;;;;;;;-148.88;32.66;76199.75;5033980;28;20036;-77